Time;durP1;ratioP1;P1;durP2;ratioP2;P2;SDS_P1;SDS_P2;PMS_P1;PMS_P2;Temp;Humidity;BMP_temperature;BMP_pressure;BME280_temperature;BME280_humidity;BME280_pressure;Samples;Min_cycle;Max_cycle;Signal;HPM_P1;HPM_P2
2024/03/02 00:01:43;;;;;;;49.47;43.13;;;9.90;1.00;;;;;;5090164;28;20494;-76
2024/03/02 00:04:10;;;;;;;50.40;42.30;;;9.90;1.00;;;;;;5089559;28;20466;-74
2024/03/02 00:06:38;;;;;;;53.33;42.93;;;9.80;1.00;;;;;;5092175;28;21996;-75
2024/03/02 00:09:05;;;;;;;53.27;43.70;;;9.90;1.00;;;;;;5049821;28;1168200;-77
2024/03/02 00:11:35;;;;;;;55.03;45.13;;;9.90;1.00;;;;;;5090611;28;20462;-75
2024/03/02 00:14:03;;;;;;;52.40;43.90;;;10.00;1.00;;;;;;5086553;28;20508;-75
2024/03/02 00:16:33;;;;;;;54.00;44.43;;;10.00;1.00;;;;;;5090262;28;20499;-75
2024/03/02 00:19:03;;;;;;;49.47;42.97;;;10.00;1.00;;;;;;5082608;28;20951;-76
2024/03/02 00:21:31;;;;;;;53.70;44.80;;;10.10;1.00;;;;;;5102093;27;20540;-75
2024/03/02 00:23:59;;;;;;;52.40;43.17;;;10.10;1.00;;;;;;5090788;28;20494;-76
2024/03/02 00:26:26;;;;;;;56.17;47.23;;;10.10;1.00;;;;;;5094191;28;20467;-76
2024/03/02 00:28:56;;;;;;;51.43;45.03;;;10.10;1.00;;;;;;5095004;28;21326;-75
2024/03/02 00:31:25;;;;;;;52.40;43.33;;;10.10;1.00;;;;;;5099238;27;21266;-76
2024/03/02 00:33:54;;;;;;;47.80;42.30;;;10.10;1.00;;;;;;5090842;28;20963;-75
2024/03/02 00:36:25;;;;;;;55.00;44.03;;;10.20;1.00;;;;;;5088699;28;20971;-75
2024/03/02 00:38:54;;;;;;;53.77;43.37;;;10.20;1.00;;;;;;5101594;27;20474;-75
2024/03/02 00:41:24;;;;;;;49.60;42.93;;;10.20;1.00;;;;;;5100507;27;20435;-76
2024/03/02 00:44:12;;;;;;;51.53;43.47;;;10.30;1.00;;;;;;5094459;28;20558;-74
2024/03/02 00:46:40;;;;;;;52.40;43.57;;;10.30;1.00;;;;;;5090006;28;20485;-73
2024/03/02 00:49:20;;;;;;;54.63;44.00;;;10.20;1.00;;;;;;5088768;28;20440;-76
2024/03/02 00:51:49;;;;;;;51.10;44.53;;;10.30;1.00;;;;;;5090556;28;20458;-76
2024/03/02 00:54:19;;;;;;;58.60;49.03;;;10.30;1.00;;;;;;5087641;28;20534;-74
2024/03/02 00:56:47;;;;;;;53.97;44.47;;;10.30;1.00;;;;;;5094020;27;20560;-76
2024/03/02 00:59:14;;;;;;;51.60;44.63;;;10.30;1.00;;;;;;5090689;27;20498;-76
2024/03/02 01:01:42;;;;;;;56.23;46.47;;;10.20;1.00;;;;;;5105083;27;20485;-75
2024/03/02 01:04:10;;;;;;;53.17;46.27;;;10.20;1.00;;;;;;5109763;27;20477;-76
2024/03/02 01:06:37;;;;;;;52.30;45.60;;;10.30;1.00;;;;;;5089262;28;20532;-75
2024/03/02 01:09:05;;;;;;;52.40;44.93;;;10.30;1.00;;;;;;5087476;28;20500;-75
2024/03/02 01:11:32;;;;;;;58.40;46.47;;;10.50;1.00;;;;;;5089488;28;20464;-77
2024/03/02 01:13:59;;;;;;;54.00;46.10;;;10.50;1.00;;;;;;5099095;27;20455;-75
2024/03/02 01:16:26;;;;;;;55.57;46.33;;;10.50;1.00;;;;;;5087923;28;20526;-75
2024/03/02 01:18:53;;;;;;;52.63;45.70;;;10.50;1.00;;;;;;5091434;28;20454;-77
2024/03/02 01:21:21;;;;;;;56.30;46.80;;;10.50;1.00;;;;;;5084875;28;20547;-74
2024/03/02 01:23:48;;;;;;;55.20;44.33;;;10.50;1.00;;;;;;5087010;28;20596;-75
2024/03/02 01:26:15;;;;;;;53.87;44.80;;;10.50;1.00;;;;;;5085591;28;20475;-75
2024/03/02 01:28:42;;;;;;;51.67;44.43;;;10.50;1.00;;;;;;5086590;27;21202;-75
2024/03/02 01:31:09;;;;;;;56.00;46.67;;;10.40;1.00;;;;;;5088582;28;20527;-75
2024/03/02 01:33:36;;;;;;;57.23;46.77;;;10.30;1.00;;;;;;5109471;27;20536;-76
2024/03/02 01:36:03;;;;;;;59.07;46.43;;;10.40;1.00;;;;;;5095247;27;20481;-76
2024/03/02 01:38:31;;;;;;;53.97;45.80;;;10.30;1.00;;;;;;5098420;27;20545;-76
2024/03/02 01:40:58;;;;;;;58.40;46.60;;;10.20;1.00;;;;;;5088978;28;21217;-75
2024/03/02 01:43:25;;;;;;;54.40;46.80;;;10.20;1.00;;;;;;5087282;28;20452;-75
2024/03/02 01:45:52;;;;;;;57.77;48.17;;;10.20;1.00;;;;;;5089399;28;20503;-75
2024/03/02 01:48:20;;;;;;;53.57;44.97;;;10.20;1.00;;;;;;5087118;28;20537;-74
2024/03/02 01:50:47;;;;;;;53.67;47.50;;;10.20;1.00;;;;;;5088774;28;20470;-75
2024/03/02 01:53:14;;;;;;;59.17;46.90;;;10.20;1.00;;;;;;5089922;28;20620;-75
2024/03/02 01:55:43;;;;;;;54.70;47.37;;;10.30;1.00;;;;;;5091064;28;20579;-75
2024/03/02 01:58:10;;;;;;;59.83;48.37;;;10.20;1.00;;;;;;5082320;28;20463;-76
2024/03/02 02:00:37;;;;;;;58.03;46.50;;;10.20;1.00;;;;;;5088095;28;20538;-75
2024/03/02 02:03:04;;;;;;;60.57;49.40;;;10.20;1.00;;;;;;5091033;27;20509;-75
2024/03/02 02:05:32;;;;;;;61.07;48.03;;;10.20;1.00;;;;;;5089171;28;21298;-73
2024/03/02 02:07:59;;;;;;;59.63;48.13;;;10.10;1.00;;;;;;5091797;28;20566;-75
2024/03/02 02:10:26;;;;;;;56.97;46.53;;;10.00;1.00;;;;;;5094872;27;20993;-76
2024/03/02 02:12:55;;;;;;;58.00;48.83;;;10.00;1.00;;;;;;5086485;28;20458;-75
2024/03/02 02:15:29;;;;;;;59.07;46.17;;;9.90;1.00;;;;;;5090812;28;20944;-76
2024/03/02 02:17:55;;;;;;;58.03;50.03;;;9.90;1.00;;;;;;5093138;27;20469;-75
2024/03/02 02:20:22;;;;;;;56.07;47.67;;;9.90;1.00;;;;;;5091553;28;20470;-75
2024/03/02 02:23:01;;;;;;;55.13;45.77;;;9.90;1.00;;;;;;5088706;28;20454;-76
2024/03/02 02:25:30;;;;;;;55.37;45.70;;;9.90;1.00;;;;;;5102817;27;20546;-76
2024/03/02 02:27:58;;;;;;;62.63;50.37;;;9.90;1.00;;;;;;5093965;28;20517;-77
2024/03/02 02:30:27;;;;;;;58.43;47.30;;;9.90;1.00;;;;;;5091161;28;20451;-76
2024/03/02 02:32:54;;;;;;;60.97;48.13;;;9.90;1.00;;;;;;5090251;28;20447;-76
2024/03/02 02:35:21;;;;;;;59.47;47.43;;;9.90;1.00;;;;;;5093630;27;21287;-76
2024/03/02 02:37:49;;;;;;;57.70;46.30;;;9.90;1.00;;;;;;5091595;28;20533;-75
2024/03/02 02:40:19;;;;;;;59.70;46.60;;;9.70;1.00;;;;;;5095972;27;20537;-75
2024/03/02 02:42:46;;;;;;;63.67;49.33;;;9.70;1.00;;;;;;5089574;28;20466;-75
2024/03/02 02:45:14;;;;;;;58.93;48.00;;;9.60;1.00;;;;;;5097841;27;20547;-75
2024/03/02 02:47:42;;;;;;;56.67;47.70;;;9.60;1.00;;;;;;5088718;28;20461;-75
2024/03/02 02:50:09;;;;;;;55.47;49.00;;;9.60;1.00;;;;;;5090416;28;20561;-74
2024/03/02 02:52:39;;;;;;;61.83;49.63;;;9.60;1.00;;;;;;5089102;28;20474;-76
2024/03/02 02:55:08;;;;;;;63.33;48.73;;;9.60;1.00;;;;;;5096839;27;21321;-72
2024/03/02 02:57:39;;;;;;;64.90;50.80;;;9.50;1.00;;;;;;5099419;27;20461;-73
2024/03/02 03:00:10;;;;;;;61.70;49.67;;;9.50;1.00;;;;;;5100297;27;20487;-73
2024/03/02 03:02:38;;;;;;;61.20;47.97;;;9.50;1.00;;;;;;5089049;28;20458;-71
2024/03/02 03:05:07;;;;;;;64.17;47.97;;;9.40;1.00;;;;;;5090285;27;20905;-73
2024/03/02 03:07:34;;;;;;;61.53;50.13;;;9.30;1.00;;;;;;5092371;27;20509;-71
2024/03/02 03:10:01;;;;;;;61.03;49.53;;;9.30;1.00;;;;;;5104413;27;20444;-71
2024/03/02 03:12:28;;;;;;;57.73;46.60;;;9.30;1.00;;;;;;5108152;27;20547;-73
2024/03/02 03:14:57;;;;;;;56.27;48.67;;;9.30;1.00;;;;;;5092196;28;20528;-74
2024/03/02 03:17:24;;;;;;;62.03;49.20;;;9.40;1.00;;;;;;5100931;27;21291;-76
2024/03/02 03:19:51;;;;;;;60.73;48.47;;;9.40;1.00;;;;;;5102004;27;20848;-72
2024/03/02 03:22:18;;;;;;;55.50;47.30;;;9.50;1.00;;;;;;5094452;28;21081;-71
2024/03/02 03:24:45;;;;;;;60.00;48.50;;;9.50;1.00;;;;;;5098568;28;21361;-73
2024/03/02 03:27:12;;;;;;;63.40;49.30;;;9.60;1.00;;;;;;5094871;28;20466;-74
2024/03/02 03:29:39;;;;;;;58.90;48.77;;;9.60;1.00;;;;;;5091512;28;21175;-71
2024/03/02 03:32:08;;;;;;;52.47;44.57;;;9.70;1.00;;;;;;5091197;28;20459;-73
2024/03/02 03:34:35;;;;;;;59.67;47.17;;;9.70;1.00;;;;;;5093239;28;21058;-73
2024/03/02 03:37:03;;;;;;;56.03;44.90;;;9.80;1.00;;;;;;5096629;28;20577;-70
2024/03/02 03:39:30;;;;;;;56.60;46.33;;;9.80;1.00;;;;;;5101558;27;20454;-73
2024/03/02 03:41:57;;;;;;;58.07;45.70;;;9.80;1.00;;;;;;5098388;27;20449;-72
2024/03/02 03:44:24;;;;;;;53.43;44.77;;;9.80;1.00;;;;;;5081358;28;20534;-73
2024/03/02 03:46:51;;;;;;;53.97;44.57;;;9.80;1.00;;;;;;5090594;28;20651;-73
2024/03/02 03:49:19;;;;;;;54.87;44.30;;;9.80;1.00;;;;;;5098831;28;20548;-72
2024/03/02 03:51:46;;;;;;;53.17;44.93;;;9.80;1.00;;;;;;5106043;27;20489;-73
2024/03/02 03:54:13;;;;;;;58.57;45.73;;;9.80;1.00;;;;;;5099101;27;20462;-73
2024/03/02 03:56:40;;;;;;;55.80;46.53;;;9.90;1.00;;;;;;5092464;28;20543;-71
2024/03/02 03:59:07;;;;;;;63.67;45.97;;;9.80;1.00;;;;;;5107062;27;20462;-74
2024/03/02 04:01:34;;;;;;;54.90;45.60;;;9.70;1.00;;;;;;5108610;27;20454;-74
2024/03/02 04:04:01;;;;;;;52.90;43.70;;;9.60;1.00;;;;;;5104102;27;20570;-74
2024/03/02 04:06:30;;;;;;;57.03;45.77;;;9.70;1.00;;;;;;5088088;28;20454;-76
2024/03/02 04:08:57;;;;;;;52.27;43.90;;;9.70;1.00;;;;;;5109219;27;20462;-76
2024/03/02 04:11:24;;;;;;;53.70;45.03;;;9.70;1.00;;;;;;5084312;27;20536;-77
2024/03/02 04:13:51;;;;;;;62.37;47.20;;;9.60;1.00;;;;;;5088595;28;20513;-75
2024/03/02 04:16:18;;;;;;;54.07;45.83;;;9.60;1.00;;;;;;5094751;27;20480;-75
2024/03/02 04:18:45;;;;;;;62.97;46.10;;;9.60;1.00;;;;;;5090770;28;20508;-75
2024/03/02 04:21:12;;;;;;;58.20;45.80;;;9.50;1.00;;;;;;5090156;28;20486;-75
2024/03/02 04:23:42;;;;;;;60.60;47.20;;;9.50;1.00;;;;;;5086549;28;20884;-75
2024/03/02 04:26:09;;;;;;;55.13;45.80;;;9.60;1.00;;;;;;5091374;27;20962;-78
2024/03/02 04:28:36;;;;;;;56.20;44.80;;;9.60;1.00;;;;;;5100806;27;20521;-74
2024/03/02 04:31:03;;;;;;;53.77;47.07;;;9.60;1.00;;;;;;5093281;28;20467;-75
2024/03/02 04:33:30;;;;;;;54.37;44.93;;;9.70;1.00;;;;;;5100711;27;20463;-76
2024/03/02 04:35:57;;;;;;;58.17;45.10;;;9.70;1.00;;;;;;5091562;28;20971;-75
2024/03/02 04:38:24;;;;;;;56.40;43.10;;;9.80;1.00;;;;;;5090606;27;20485;-76
2024/03/02 04:40:52;;;;;;;51.73;43.40;;;9.90;1.00;;;;;;5089699;28;20407;-75
2024/03/02 04:43:19;;;;;;;51.07;41.60;;;9.90;1.00;;;;;;5112160;27;20465;-76
2024/03/02 04:45:46;;;;;;;46.77;40.97;;;9.90;1.00;;;;;;5078035;28;20951;-77
2024/03/02 04:48:13;;;;;;;53.90;41.77;;;10.00;1.00;;;;;;5092751;27;20580;-76
2024/03/02 04:50:42;;;;;;;46.87;40.07;;;10.10;1.00;;;;;;5101524;28;20464;-74
2024/03/02 04:53:09;;;;;;;44.00;39.30;;;10.20;1.00;;;;;;5092230;28;20470;-75
2024/03/02 04:58:36;;;;;;;50.77;40.40;;;10.20;1.00;;;;;;5027032;28;20459;-76
2024/03/02 05:01:03;;;;;;;57.17;46.20;;;10.20;1.00;;;;;;5007174;28;20578;-73
2024/03/02 05:03:30;;;;;;;47.77;40.30;;;10.10;1.00;;;;;;5053285;27;20465;-74
2024/03/02 05:05:58;;;;;;;48.30;40.57;;;10.10;1.00;;;;;;5111274;27;20931;-76
2024/03/02 05:08:25;;;;;;;50.50;43.33;;;10.10;1.00;;;;;;5115175;27;20536;-75
2024/03/02 05:10:52;;;;;;;48.13;40.27;;;10.10;1.00;;;;;;5109412;27;20572;-75
2024/03/02 05:13:20;;;;;;;49.90;41.37;;;10.20;1.00;;;;;;5100837;27;20473;-79
2024/03/02 05:15:49;;;;;;;50.63;39.97;;;10.20;1.00;;;;;;5103522;27;20528;-75
2024/03/02 05:18:16;;;;;;;47.00;41.07;;;10.20;1.00;;;;;;5109692;27;20523;-75
2024/03/02 05:20:43;;;;;;;49.10;40.40;;;10.20;1.00;;;;;;5102867;27;20455;-74
2024/03/02 05:23:10;;;;;;;49.13;40.90;;;10.20;1.00;;;;;;5088988;28;21296;-77
2024/03/02 05:25:37;;;;;;;52.37;39.67;;;10.20;1.00;;;;;;5097307;27;20481;-75
2024/03/02 05:28:05;;;;;;;46.47;39.57;;;10.10;1.00;;;;;;5092994;27;20584;-75
2024/03/02 05:30:32;;;;;;;48.20;40.57;;;10.00;1.00;;;;;;5086767;28;20459;-75
2024/03/02 05:33:00;;;;;;;46.90;39.20;;;9.90;1.00;;;;;;5090669;28;20480;-77
2024/03/02 05:35:27;;;;;;;45.43;40.47;;;10.00;1.00;;;;;;5088818;28;21403;-75
2024/03/02 05:37:54;;;;;;;43.93;39.23;;;10.00;1.00;;;;;;5098380;27;20453;-75
2024/03/02 05:40:21;;;;;;;49.10;38.80;;;10.00;1.00;;;;;;5093741;28;21162;-75
2024/03/02 05:42:48;;;;;;;48.63;41.13;;;9.90;1.00;;;;;;5089195;27;20490;-75
2024/03/02 05:45:16;;;;;;;46.47;39.60;;;10.00;1.00;;;;;;5090285;28;20542;-76
2024/03/02 05:47:43;;;;;;;47.33;41.10;;;9.90;1.00;;;;;;5096088;27;21583;-75
2024/03/02 05:50:11;;;;;;;48.57;39.80;;;9.90;1.00;;;;;;5094861;27;20462;-75
2024/03/02 05:52:38;;;;;;;48.63;41.00;;;9.90;1.00;;;;;;5089035;28;20600;-75
2024/03/02 05:55:06;;;;;;;51.30;41.50;;;9.90;1.00;;;;;;5091062;27;20561;-75
2024/03/02 05:57:47;;;;;;;51.67;41.50;;;9.90;1.00;;;;;;5103429;27;20459;-75
2024/03/02 06:00:16;;;;;;;50.57;41.73;;;9.90;1.00;;;;;;5091905;28;20446;-75
2024/03/02 06:02:44;;;;;;;50.80;41.93;;;9.90;1.00;;;;;;5106930;27;20492;-75
2024/03/02 06:05:14;;;;;;;52.17;41.47;;;9.90;1.00;;;;;;5095625;27;20453;-75
2024/03/02 06:07:42;;;;;;;50.07;42.20;;;9.90;1.00;;;;;;5087560;28;22128;-75
2024/03/02 06:10:11;;;;;;;56.33;41.27;;;9.90;1.00;;;;;;5088379;28;20459;-75
2024/03/02 06:12:39;;;;;;;53.63;42.07;;;9.90;1.00;;;;;;5094736;28;20471;-76
2024/03/02 06:15:07;;;;;;;54.90;44.20;;;9.80;1.00;;;;;;5110745;27;20457;-74
2024/03/02 06:17:36;;;;;;;55.80;44.43;;;9.80;1.00;;;;;;5105359;27;20466;-75
2024/03/02 06:20:03;;;;;;;52.40;43.43;;;9.80;1.00;;;;;;5087126;28;20534;-75
2024/03/02 06:22:31;;;;;;;49.93;41.47;;;9.90;1.00;;;;;;5085095;28;20826;-75
2024/03/02 06:25:00;;;;;;;50.83;43.87;;;10.00;1.00;;;;;;5083156;28;20887;-74
2024/03/02 06:27:26;;;;;;;55.37;45.23;;;10.00;1.00;;;;;;5088232;28;20486;-72
2024/03/02 06:29:54;;;;;;;50.10;43.07;;;10.00;1.00;;;;;;5097880;27;20482;-75
2024/03/02 06:32:23;;;;;;;57.23;44.17;;;10.00;1.00;;;;;;5088443;28;20546;-73
2024/03/02 06:34:49;;;;;;;52.07;42.03;;;10.00;1.00;;;;;;5074229;28;20455;-74
2024/03/02 06:37:16;;;;;;;53.60;43.47;;;10.00;1.00;;;;;;5087826;28;20532;-74
2024/03/02 06:39:44;;;;;;;54.67;43.63;;;10.00;1.00;;;;;;5092543;28;20545;-73
2024/03/02 06:42:11;;;;;;;59.53;45.70;;;9.90;1.00;;;;;;5088065;28;20493;-72
2024/03/02 06:44:38;;;;;;;51.53;42.37;;;9.90;1.00;;;;;;5089585;28;20506;-73
2024/03/02 06:47:06;;;;;;;54.17;44.50;;;10.00;1.00;;;;;;5085704;28;20950;-73
2024/03/02 06:49:34;;;;;;;53.60;43.83;;;10.00;1.00;;;;;;5089409;28;20533;-74
2024/03/02 06:52:01;;;;;;;54.60;43.10;;;10.00;1.00;;;;;;5090291;28;20474;-72
2024/03/02 06:54:28;;;;;;;52.20;41.53;;;9.90;1.00;;;;;;5098407;27;20442;-72
2024/03/02 06:56:56;;;;;;;53.77;43.97;;;10.00;1.00;;;;;;5103708;28;22084;-73
2024/03/02 06:59:24;;;;;;;60.60;47.20;;;9.90;1.00;;;;;;5091613;28;20613;-73
2024/03/02 07:01:51;;;;;;;55.00;43.10;;;9.90;1.00;;;;;;5099406;27;20476;-74
2024/03/02 07:04:18;;;;;;;55.13;42.57;;;9.90;1.00;;;;;;5101735;27;21000;-71
2024/03/02 07:06:45;;;;;;;55.87;43.43;;;9.90;1.00;;;;;;5089944;28;20498;-73
2024/03/02 07:09:12;;;;;;;51.70;43.43;;;9.90;1.00;;;;;;5096398;27;20455;-72
2024/03/02 07:11:41;;;;;;;56.50;45.30;;;9.80;1.00;;;;;;5076352;28;20546;-73
2024/03/02 07:14:11;;;;;;;56.47;45.07;;;10.00;1.00;;;;;;5107977;27;20466;-73
2024/03/02 07:16:40;;;;;;;60.37;42.23;;;10.10;1.00;;;;;;5110452;27;20450;-75
2024/03/02 07:19:07;;;;;;;55.10;44.67;;;10.10;1.00;;;;;;5104929;27;20458;-74
2024/03/02 07:21:34;;;;;;;52.40;43.77;;;10.00;1.00;;;;;;5099084;27;21306;-73
2024/03/02 07:24:02;;;;;;;60.57;46.63;;;10.00;1.00;;;;;;5093325;28;20466;-76
2024/03/02 07:26:30;;;;;;;53.43;44.20;;;9.80;1.00;;;;;;5093594;28;20459;-75
2024/03/02 07:28:57;;;;;;;51.40;42.93;;;9.90;1.00;;;;;;5090252;28;20508;-74
2024/03/02 07:31:25;;;;;;;52.40;42.17;;;9.90;1.00;;;;;;5093482;28;20462;-72
2024/03/02 07:33:52;;;;;;;59.43;44.10;;;10.00;1.00;;;;;;5094076;28;20459;-76
2024/03/02 07:36:20;;;;;;;56.07;44.23;;;9.90;1.00;;;;;;5086520;28;20462;-73
2024/03/02 07:38:50;;;;;;;53.93;43.37;;;9.90;1.00;;;;;;5092022;28;20989;-73
2024/03/02 07:41:17;;;;;;;55.00;43.57;;;9.90;1.00;;;;;;5089196;28;20470;-71
2024/03/02 07:43:45;;;;;;;53.17;43.57;;;9.90;1.00;;;;;;5091551;28;20486;-73
2024/03/02 07:46:12;;;;;;;61.60;43.67;;;9.80;1.00;;;;;;5089558;28;20974;-72
2024/03/02 07:48:40;;;;;;;54.73;42.63;;;9.90;1.00;;;;;;5098042;27;20874;-70
2024/03/02 07:51:07;;;;;;;50.73;41.80;;;10.00;1.00;;;;;;5092669;28;20483;-73
2024/03/02 07:53:34;;;;;;;53.00;45.07;;;10.20;1.00;;;;;;5091868;28;20454;-72
2024/03/02 07:56:02;;;;;;;54.93;44.47;;;10.30;1.00;;;;;;5093732;28;20486;-72
2024/03/02 07:58:30;;;;;;;54.90;43.97;;;10.30;1.00;;;;;;5100163;27;20487;-74
2024/03/02 08:00:57;;;;;;;52.50;40.73;;;10.30;1.00;;;;;;5089001;28;20466;-72
2024/03/02 08:03:24;;;;;;;50.03;41.87;;;10.40;1.00;;;;;;5087152;28;20460;-74
2024/03/02 08:05:53;;;;;;;50.00;41.43;;;10.20;1.00;;;;;;5087119;27;21145;-75
2024/03/02 08:08:20;;;;;;;53.73;42.80;;;10.30;1.00;;;;;;5080655;28;20459;-72
2024/03/02 08:10:47;;;;;;;49.63;40.90;;;10.40;1.00;;;;;;5090203;28;20470;-74
2024/03/02 08:13:14;;;;;;;55.13;43.70;;;10.30;1.00;;;;;;5093976;28;20467;-72
2024/03/02 08:15:41;;;;;;;51.47;42.43;;;10.50;1.00;;;;;;5093473;28;20459;-73
2024/03/02 08:18:08;;;;;;;47.50;42.10;;;10.50;1.00;;;;;;5086663;28;20893;-73
2024/03/02 08:20:35;;;;;;;55.53;42.83;;;10.50;1.00;;;;;;5093529;27;20461;-72
2024/03/02 08:23:04;;;;;;;53.60;41.37;;;10.60;1.00;;;;;;5111967;27;21101;-74
2024/03/02 08:25:31;;;;;;;48.40;40.70;;;10.60;1.00;;;;;;5087385;28;20455;-73
2024/03/02 08:27:58;;;;;;;51.70;39.87;;;10.70;1.00;;;;;;5090073;28;20458;-73
2024/03/02 08:30:24;;;;;;;47.90;39.90;;;10.40;1.00;;;;;;5093032;28;20674;-73
2024/03/02 08:32:51;;;;;;;49.23;38.37;;;10.40;1.00;;;;;;5093347;27;20945;-72
2024/03/02 08:35:19;;;;;;;47.50;38.70;;;10.40;1.00;;;;;;5086805;28;20548;-74
2024/03/02 08:37:47;;;;;;;46.60;40.43;;;10.40;1.00;;;;;;5096499;27;21068;-73
2024/03/02 08:40:15;;;;;;;49.27;38.17;;;10.50;1.00;;;;;;5086506;28;20700;-74
2024/03/02 08:42:44;;;;;;;48.87;40.57;;;10.50;1.00;;;;;;5089520;28;20452;-74
2024/03/02 08:45:11;;;;;;;44.83;37.30;;;10.60;1.00;;;;;;5087917;28;20936;-78
2024/03/02 08:47:39;;;;;;;45.47;38.33;;;10.60;1.00;;;;;;5088623;28;20454;-77
2024/03/02 08:50:08;;;;;;;48.63;40.80;;;10.70;1.00;;;;;;5093041;28;20475;-77
2024/03/02 08:52:36;;;;;;;49.13;38.53;;;10.80;1.00;;;;;;5091138;28;20455;-79
2024/03/02 08:55:03;;;;;;;45.93;39.53;;;10.90;1.00;;;;;;5090882;28;21070;-77
2024/03/02 08:57:32;;;;;;;51.80;38.80;;;10.90;1.00;;;;;;5093933;28;21093;-79
2024/03/02 08:59:59;;;;;;;49.00;40.67;;;10.90;1.00;;;;;;5092040;28;20500;-77
2024/03/02 09:02:27;;;;;;;48.13;41.80;;;10.80;1.00;;;;;;5091568;28;20547;-78
2024/03/02 09:04:56;;;;;;;52.50;41.93;;;10.70;1.00;;;;;;5089991;28;20453;-78
2024/03/02 09:07:23;;;;;;;49.87;39.90;;;10.80;1.00;;;;;;5099933;27;20531;-77
2024/03/02 09:09:50;;;;;;;47.57;40.00;;;10.80;1.00;;;;;;5093785;28;20986;-78
2024/03/02 09:12:17;;;;;;;48.90;39.30;;;10.60;1.00;;;;;;5089718;27;20490;-77
2024/03/02 09:14:46;;;;;;;47.40;39.60;;;10.70;1.00;;;;;;5089938;28;20478;-77
2024/03/02 09:17:15;;;;;;;50.30;39.73;;;10.90;1.00;;;;;;5091754;27;21010;-77
2024/03/02 09:19:42;;;;;;;46.90;38.37;;;11.00;1.00;;;;;;5090959;27;20506;-78
2024/03/02 09:22:09;;;;;;;49.47;39.13;;;11.00;1.00;;;;;;5090852;28;21008;-79
2024/03/02 09:24:36;;;;;;;44.07;36.90;;;10.90;1.00;;;;;;5092266;28;20460;-78
2024/03/02 09:27:03;;;;;;;43.17;37.67;;;11.00;1.00;;;;;;5093250;28;20494;-77
2024/03/02 09:29:31;;;;;;;54.93;35.10;;;11.20;1.00;;;;;;5090289;28;20474;-77
2024/03/02 09:31:59;;;;;;;44.90;38.03;;;11.40;1.00;;;;;;5092581;28;20505;-77
2024/03/02 09:34:26;;;;;;;44.93;36.70;;;11.50;1.00;;;;;;5091390;28;21052;-79
2024/03/02 09:36:55;;;;;;;43.73;36.20;;;11.50;1.00;;;;;;5091007;28;20589;-77
2024/03/02 09:39:22;;;;;;;43.67;36.07;;;11.50;1.00;;;;;;5092455;28;20467;-77
2024/03/02 09:41:49;;;;;;;45.23;37.03;;;11.60;1.00;;;;;;5093125;28;20464;-77
2024/03/02 09:44:16;;;;;;;43.00;35.30;;;11.90;1.00;;;;;;5093333;28;20538;-78
2024/03/02 09:46:43;;;;;;;39.90;34.17;;;11.90;1.00;;;;;;5091653;28;20987;-76
2024/03/02 09:49:12;;;;;;;43.23;36.03;;;12.10;1.00;;;;;;5091933;28;21010;-77
2024/03/02 09:51:39;;;;;;;39.00;33.77;;;12.30;1.00;;;;;;5090080;28;20479;-77
2024/03/02 09:54:09;;;;;;;41.87;34.03;;;12.30;1.00;;;;;;5087812;28;20436;-75
2024/03/02 09:56:37;;;;;;;39.10;32.60;;;12.50;1.00;;;;;;5106904;27;20556;-73
2024/03/02 09:59:04;;;;;;;39.10;33.83;;;12.60;1.00;;;;;;5108591;27;20553;-75
2024/03/02 10:01:31;;;;;;;38.90;32.23;;;12.60;1.00;;;;;;5107342;27;20456;-71
2024/03/02 10:04:00;;;;;;;36.33;29.60;;;12.80;1.00;;;;;;5093130;28;20465;-72
2024/03/02 10:06:29;;;;;;;35.37;31.50;;;12.80;1.00;;;;;;5096438;27;20985;-73
2024/03/02 10:08:57;;;;;;;36.97;31.90;;;13.10;1.00;;;;;;5102218;27;20496;-72
2024/03/02 10:11:29;;;;;;;37.17;30.57;;;13.00;1.00;;;;;;5093241;27;20645;-73
2024/03/02 10:14:07;;;;;;;36.23;30.63;;;12.90;1.00;;;;;;5096593;28;20458;-72
2024/03/02 10:16:36;;;;;;;37.23;30.43;;;13.00;1.00;;;;;;5089039;28;20494;-73
2024/03/02 10:19:20;;;;;;;34.00;29.90;;;12.90;1.00;;;;;;5102088;27;20967;-73
2024/03/02 10:21:50;;;;;;;41.20;32.80;;;12.90;1.00;;;;;;5113354;27;20456;-72
2024/03/02 10:24:18;;;;;;;32.70;26.60;;;13.20;1.00;;;;;;5095382;28;20492;-73
2024/03/02 10:26:45;;;;;;;34.83;27.50;;;13.20;1.00;;;;;;5095478;28;20464;-73
2024/03/02 10:29:12;;;;;;;31.47;27.63;;;13.10;1.00;;;;;;5086023;27;20476;-73
2024/03/02 10:31:42;;;;;;;32.40;27.10;;;13.50;1.00;;;;;;5092792;28;20453;-73
2024/03/02 10:34:10;;;;;;;33.73;26.30;;;14.10;1.00;;;;;;5089390;28;20481;-73
2024/03/02 10:36:38;;;;;;;27.30;23.87;;;14.60;1.00;;;;;;5092500;28;20574;-75
2024/03/02 10:39:08;;;;;;;26.40;23.60;;;14.80;1.00;;;;;;5091941;28;20481;-72
2024/03/02 10:41:36;;;;;;;28.47;25.47;;;14.80;1.00;;;;;;5101413;27;20542;-69
2024/03/02 10:44:04;;;;;;;25.83;23.03;;;14.60;1.00;;;;;;5098351;27;20859;-74
2024/03/02 10:46:34;;;;;;;25.10;22.50;;;14.50;1.00;;;;;;5099649;27;20995;-73
2024/03/02 10:49:03;;;;;;;23.27;20.50;;;14.40;1.00;;;;;;5092650;28;20564;-73
2024/03/02 10:51:32;;;;;;;28.60;24.10;;;14.40;1.00;;;;;;5110419;27;20457;-73
2024/03/02 10:54:00;;;;;;;25.37;22.50;;;14.70;1.00;;;;;;5098183;27;20560;-75
2024/03/02 10:56:31;;;;;;;24.47;21.87;;;14.80;1.00;;;;;;5097095;27;20417;-73
2024/03/02 10:59:03;;;;;;;24.90;22.20;;;15.10;1.00;;;;;;5106862;27;20562;-73
2024/03/02 11:01:34;;;;;;;24.50;20.33;;;15.00;1.00;;;;;;5088688;27;20467;-74
2024/03/02 11:04:04;;;;;;;23.33;20.87;;;15.10;1.00;;;;;;5099631;28;20461;-77
2024/03/02 11:06:35;;;;;;;41.00;24.20;;;15.20;1.00;;;;;;5091382;27;20912;-77
2024/03/02 11:09:08;;;;;;;22.83;20.27;;;15.50;1.00;;;;;;5093634;28;20433;-78
2024/03/02 11:11:41;;;;;;;27.77;20.50;;;15.60;1.00;;;;;;5100389;27;20458;-78
2024/03/02 11:14:14;;;;;;;28.80;24.77;;;15.70;1.00;;;;;;5103127;27;20458;-77
2024/03/02 11:16:41;;;;;;;24.67;21.70;;;15.70;1.00;;;;;;5106698;27;20478;-79
2024/03/02 11:19:11;;;;;;;23.70;21.27;;;15.60;1.00;;;;;;5112533;27;20501;-76
2024/03/02 11:21:39;;;;;;;23.80;21.33;;;15.60;1.00;;;;;;5111884;27;20437;-76
2024/03/02 11:24:32;;;;;;;24.77;21.83;;;15.60;1.00;;;;;;5111300;27;20430;-79
2024/03/02 11:27:07;;;;;;;26.10;21.17;;;15.50;1.00;;;;;;5116271;27;20432;-77
2024/03/02 11:29:52;;;;;;;22.83;19.73;;;15.30;1.00;;;;;;5095208;28;21068;-75
2024/03/02 11:32:23;;;;;;;24.00;20.27;;;15.50;1.00;;;;;;5092402;28;20533;-78
2024/03/02 11:34:51;;;;;;;26.07;21.63;;;15.70;1.00;;;;;;5095583;28;20474;-76
2024/03/02 11:37:20;;;;;;;25.73;22.80;;;16.10;1.00;;;;;;5095502;28;20418;-78
2024/03/02 11:39:48;;;;;;;26.03;23.23;;;16.60;1.00;;;;;;5092740;28;20471;-77
2024/03/02 11:42:17;;;;;;;24.67;22.03;;;16.60;1.00;;;;;;5109968;27;20462;-77
2024/03/02 11:44:46;;;;;;;35.43;24.57;;;16.60;1.00;;;;;;5093122;28;20510;-77
2024/03/02 11:47:15;;;;;;;23.80;21.30;;;17.50;1.00;;;;;;5092670;27;20493;-78
2024/03/02 11:49:44;;;;;;;24.27;20.73;;;19.30;1.00;;;;;;5098917;27;20465;-76
2024/03/02 11:52:13;;;;;;;22.30;20.00;;;20.70;1.00;;;;;;5092539;28;20467;-76
2024/03/02 11:54:46;;;;;;;24.03;21.57;;;20.90;1.00;;;;;;5107943;27;20457;-77
2024/03/02 11:57:14;;;;;;;22.87;20.40;;;19.90;1.00;;;;;;5096239;27;20465;-76
2024/03/02 11:59:42;;;;;;;24.27;21.80;;;19.20;1.00;;;;;;5108689;27;20466;-77
2024/03/02 12:02:15;;;;;;;22.97;20.37;;;17.90;1.00;;;;;;5092694;28;20848;-75
2024/03/02 12:04:44;;;;;;;22.80;20.47;;;17.60;1.00;;;;;;5091293;28;20459;-77
2024/03/02 12:07:12;;;;;;;24.30;20.50;;;17.40;1.00;;;;;;5091239;28;20497;-77
2024/03/02 12:09:42;;;;;;;21.40;19.10;;;18.00;1.00;;;;;;5091945;28;20485;-78
2024/03/02 12:12:17;;;;;;;21.83;19.53;;;19.00;1.00;;;;;;5094813;28;20528;-79
2024/03/02 12:14:52;;;;;;;31.60;23.97;;;19.80;1.00;;;;;;5090516;28;20998;-73
2024/03/02 12:17:19;;;;;;;21.63;19.33;;;20.20;1.00;;;;;;5097620;27;20587;-74
2024/03/02 12:19:47;;;;;;;22.03;18.67;;;19.20;1.00;;;;;;5112408;27;20553;-74
2024/03/02 12:22:15;;;;;;;19.83;17.80;;;19.20;1.00;;;;;;5110099;27;20679;-74
2024/03/02 12:24:45;;;;;;;21.17;18.97;;;20.10;1.00;;;;;;5113854;27;20454;-75
2024/03/02 12:27:13;;;;;;;21.63;19.40;;;20.50;1.00;;;;;;5111584;27;20439;-73
2024/03/02 12:29:40;;;;;;;21.53;19.20;;;21.40;1.00;;;;;;5090524;28;20501;-75
2024/03/02 12:32:09;;;;;;;20.70;18.57;;;21.30;1.00;;;;;;5100079;27;20484;-75
2024/03/02 12:34:36;;;;;;;21.07;18.63;;;22.50;1.00;;;;;;5098309;27;20443;-76
2024/03/02 12:37:03;;;;;;;18.43;16.43;;;23.60;1.00;;;;;;5104063;27;20445;-76
2024/03/02 12:39:32;;;;;;;18.47;16.60;;;24.00;1.00;;;;;;5090413;28;20465;-73
2024/03/02 12:41:59;;;;;;;19.63;17.70;;;23.60;1.00;;;;;;5089340;28;20452;-71
2024/03/02 12:44:26;;;;;;;17.57;15.63;;;23.00;1.00;;;;;;5093107;27;20487;-74
2024/03/02 12:46:53;;;;;;;18.67;16.67;;;22.50;1.00;;;;;;5096011;27;20469;-75
2024/03/02 12:49:24;;;;;;;18.23;16.57;;;22.30;1.00;;;;;;5095571;27;20574;-75